Smit Clyde — CFG7577 — position and weather

sailwx.info

Track history (hours):
 
Tides and Currents Weather Stations Pressure Air Temp Water Temp Dewpoint Dewpoint Depression Visibility Wind Speed Wind Dir Waves Ship Positions

Smit Clyde

Last reported at 2015-May-28 15:33 UTC. Time now 2015-May-28 16:12 UTC.
Position N 49°17' W 123°04'.

Length 28 m; draft 6 m.

Type: Towing. MMSI: 316011473.

Date/timePositionNaut miles runAvg speedWind from/ knotsBaromVisibWave heightAir tempDewpointWater temp
2015-May-28 15:33N 49°17' W 123°04'0 0.0
2015-May-28 14:33N 49°17' W 123°04'0 0.0
2015-May-28 13:33N 49°17' W 123°04'0 0.0
2015-May-28 12:33N 49°17' W 123°04'0 0.0
2015-May-28 11:33N 49°17' W 123°04'0 0.0
2015-May-28 10:33N 49°17' W 123°04'0 0.0
2015-May-28 09:33N 49°17' W 123°04'0 0.0
2015-May-28 08:33N 49°17' W 123°04'0 0.0
2015-May-28 07:33N 49°17' W 123°04'0 0.0
2015-May-28 06:33N 49°17' W 123°04'0 0.0
2015-May-28 05:33N 49°17' W 123°04'0 0.0
2015-May-28 04:33N 49°17' W 123°04'0 0.0
2015-May-28 03:33N 49°17' W 123°04'0 0.0
2015-May-28 02:33N 49°17' W 123°04'0 0.0
2015-May-28 01:33N 49°17' W 123°04'0 0.0
2015-May-28 00:33N 49°17' W 123°04'0 0.0
2015-May-27 23:33N 49°17' W 123°04'0 0.0
2015-May-27 22:33N 49°17' W 123°04'0 0.0
2015-May-27 21:33N 49°17' W 123°04'0 0.0
2015-May-27 20:33N 49°17' W 123°04'0 0.0
2015-May-27 19:33N 49°17' W 123°04'0 0.0
2015-May-27 18:33N 49°17' W 123°04'0 0.0
2015-May-27 17:33N 49°17' W 123°04'0 0.0
2015-May-27 16:33N 49°17' W 123°04'0 0.0
2015-May-27 15:33N 49°17' W 123°04'0 0.0
2015-May-27 14:33N 49°17' W 123°04'0 0.0
2015-May-27 13:33N 49°17' W 123°04'0 0.0
2015-May-27 12:33N 49°17' W 123°04'0 0.0
2015-May-27 11:33N 49°17' W 123°04'0 0.0
2015-May-27 10:33N 49°17' W 123°04'0 0.0
2015-May-27 09:33N 49°17' W 123°04'0 0.0
2015-May-27 08:33N 49°17' W 123°04'0 0.0
2015-May-27 07:33N 49°17' W 123°04'0 0.0
2015-May-27 06:33N 49°17' W 123°04'0 0.0
2015-May-27 05:33N 49°17' W 123°04'0 0.0
2015-May-27 04:33N 49°17' W 123°04'0 0.0
2015-May-27 03:33N 49°17' W 123°04'0 0.0
2015-May-27 02:33N 49°17' W 123°04'1 1.1
2015-May-27 01:33N 49°18' W 123°02'1 0.7
2015-May-27 00:33N 49°18' W 123°03'1 0.6
2015-May-26 23:34N 49°18' W 123°04'0 0.1
2015-May-26 22:33N 49°17' W 123°04'0 0.0
2015-May-26 21:33N 49°17' W 123°04'0 0.0
2015-May-26 20:33N 49°17' W 123°04'0 0.0
2015-May-26 19:33N 49°17' W 123°04'0 0.0
2015-May-26 18:33N 49°17' W 123°04'0 0.0
2015-May-26 17:33N 49°17' W 123°04'0 0.0
2015-May-26 16:33N 49°17' W 123°04'0 0.0
2015-May-26 15:33N 49°17' W 123°04'6 6.4
2015-May-26 14:33N 49°17' W 122°54'0 0.3
2015-May-26 13:33N 49°17' W 122°54'6 6.1
2015-May-26 12:33N 49°17' W 123°04'0 0.0
2015-May-26 11:33N 49°17' W 123°04'0 0.0
2015-May-26 10:33N 49°17' W 123°04'0 0.0
2015-May-26 09:33N 49°17' W 123°04'0 0.0
2015-May-26 08:33N 49°17' W 123°04'0 0.0
2015-May-26 07:33N 49°17' W 123°04'0 0.0
2015-May-26 06:33N 49°17' W 123°04'0 0.0
2015-May-26 05:33N 49°17' W 123°04'0 0.0
2015-May-26 04:33N 49°17' W 123°04'0 0.0
2015-May-26 03:33N 49°17' W 123°04'0 0.0
2015-May-26 02:33N 49°17' W 123°04'0 0.0
2015-May-26 01:33N 49°17' W 123°04'0 0.0
2015-May-26 00:33N 49°17' W 123°04'2 2.2
2015-May-25 23:33N 49°18' W 123°07'1 1.0
2015-May-25 22:33N 49°18' W 123°06'1 1.3
2015-May-25 21:33N 49°17' W 123°04'0 0.0
2015-May-25 20:33N 49°17' W 123°04'0 0.0
2015-May-25 19:33N 49°17' W 123°04'0 0.0
2015-May-25 18:33N 49°17' W 123°04'0 0.0
2015-May-25 17:33N 49°17' W 123°04'0 0.0
2015-May-25 16:33N 49°17' W 123°04'0 0.0
2015-May-25 15:33N 49°17' W 123°04'0 0.0
2015-May-25 14:33N 49°17' W 123°04'0 0.0
2015-May-25 13:33N 49°17' W 123°04'1 0.9
2015-May-25 12:33N 49°17' W 123°05'1 0.9
2015-May-25 11:33N 49°17' W 123°04'0 0.0
2015-May-25 10:33N 49°17' W 123°04'0 0.0
2015-May-25 09:33N 49°17' W 123°04'0 0.0
2015-May-25 08:33N 49°17' W 123°04'0 0.0
2015-May-25 07:33N 49°17' W 123°04'0 0.0
2015-May-25 06:33N 49°17' W 123°04'0 0.0
2015-May-25 05:33N 49°17' W 123°04'0 0.0
2015-May-25 04:33N 49°17' W 123°04'0 0.0
2015-May-25 03:33N 49°17' W 123°04'0 0.0
2015-May-25 02:33N 49°17' W 123°04'0 0.0
2015-May-25 01:33N 49°17' W 123°04'0 0.0
2015-May-25 00:33N 49°17' W 123°04'0 0.0
2015-May-24 23:33N 49°17' W 123°04'0 0.0
2015-May-24 22:33N 49°17' W 123°04'0 0.0
2015-May-24 21:33N 49°17' W 123°04'0 0.0
2015-May-24 20:33N 49°17' W 123°04'2 2.4
2015-May-24 19:33N 49°19' W 123°07'2 2.4
2015-May-24 18:33N 49°17' W 123°04'0 0.0
2015-May-24 17:33N 49°17' W 123°04'0 0.0
2015-May-24 16:33N 49°17' W 123°04'0 0.0
2015-May-24 06:10N 49°17' W 123°04'0 0.0
2015-May-24 05:32N 49°17' W 123°04'0 0.0
2015-May-24 04:29N 49°17' W 123°04'0 0.0
2015-May-24 03:33N 49°17' W 123°04'0 0.0
2015-May-24 02:33N 49°17' W 123°04'0 0.0
2015-May-24 01:33N 49°17' W 123°04'0 0.0
2015-May-24 00:33N 49°17' W 123°04'0 0.0
2015-May-23 23:33N 49°17' W 123°04'0 0.0
2015-May-23 22:33N 49°17' W 123°04'1 0.7
2015-May-23 21:33N 49°18' W 123°04'1 0.7
2015-May-23 20:33N 49°17' W 123°04'2 2.4
2015-May-23 19:33N 49°18' W 123°07'0 0.0
2015-May-23 18:33N 49°18' W 123°07'2 2.4
2015-May-23 17:33N 49°17' W 123°04'1 0.6
2015-May-23 16:33N 49°18' W 123°03'1 0.6
2015-May-23 15:33N 49°17' W 123°04'0 0.0
2015-May-23 14:33N 49°17' W 123°04'1 1.4
2015-May-23 13:33N 49°17' W 123°06'1 1.3
2015-May-23 12:33N 49°18' W 123°04'0 0.1
2015-May-23 11:33N 49°17' W 123°04'0 0.0
2015-May-23 10:33N 49°17' W 123°04'0 0.0
2015-May-23 09:33N 49°17' W 123°04'0 0.0
2015-May-23 08:33N 49°17' W 123°04'0 0.0
2015-May-23 07:33N 49°17' W 123°04'0 0.0
2015-May-23 06:33N 49°17' W 123°04'0 0.0
2015-May-23 05:33N 49°17' W 123°04'0 0.0
2015-May-23 04:33N 49°17' W 123°04'0 0.0
2015-May-23 03:33N 49°17' W 123°04'0 0.0
2015-May-23 02:33N 49°17' W 123°04'0 0.0
2015-May-23 01:33N 49°17' W 123°04'0 0.0
2015-May-23 00:33N 49°17' W 123°04'2 1.8
2015-May-22 23:33N 49°18' W 123°06'1 0.6
2015-May-22 22:33N 49°19' W 123°07'2 1.6
2015-May-22 21:33N 49°17' W 123°05'0 0.3
2015-May-22 20:33N 49°17' W 123°06'1 0.9
2015-May-22 19:33N 49°18' W 123°04'1 0.6
2015-May-22 18:34N 49°17' W 123°04'0 0.0
2015-May-22 17:33N 49°17' W 123°04'0 0.0
2015-May-22 16:33N 49°17' W 123°04'0 0.0
2015-May-22 15:33N 49°17' W 123°04'1 0.6
2015-May-22 14:33N 49°18' W 123°03'1 0.6
2015-May-22 13:33N 49°17' W 123°04'0 0.0
2015-May-22 12:33N 49°17' W 123°04'0 0.0
2015-May-22 11:33N 49°17' W 123°04'0 0.0
2015-May-22 10:33N 49°17' W 123°04'0 0.0
2015-May-22 09:33N 49°17' W 123°04'1 0.6
2015-May-22 08:33N 49°17' W 123°05'0 0.3
2015-May-22 07:33N 49°18' W 123°05'0 0.3
2015-May-22 06:33N 49°17' W 123°05'0 0.2
2015-May-22 05:33N 49°17' W 123°05'1 0.8
2015-May-22 04:33N 49°17' W 123°04'0 0.0
2015-May-22 03:33N 49°17' W 123°04'0 0.0
2015-May-22 02:33N 49°17' W 123°04'0 0.0
2015-May-22 01:33N 49°17' W 123°04'0 0.0
2015-May-22 00:33N 49°17' W 123°04'1 1.0
2015-May-21 23:33N 49°18' W 123°02'2 1.6
2015-May-21 22:33N 49°18' W 123°05'1 0.7
2015-May-21 21:34N 49°17' W 123°04'0 0.0
2015-May-21 20:33N 49°17' W 123°04'0 0.0
2015-May-21 19:34N 49°17' W 123°04'0 0.0
2015-May-21 18:33N 49°17' W 123°04'0 0.0
2015-May-21 17:34N 49°17' W 123°04'0 0.0
2015-May-21 16:33N 49°17' W 123°04'0 0.0
2015-May-21 15:33N 49°17' W 123°04'2 2.4
2015-May-21 14:33N 49°18' W 123°07'2 2.4
2015-May-21 13:34N 49°19' W 123°10'2 2.3
2015-May-21 12:33N 49°19' W 123°07'2 2.4
2015-May-21 11:33N 49°17' W 123°04'0 0.0
2015-May-21 10:33N 49°17' W 123°04'0 0.0
2015-May-21 09:33N 49°17' W 123°04'0 0.0
2015-May-21 08:33N 49°17' W 123°04'0 0.0
2015-May-21 07:59N 49°17' W 123°04'0 0.0
2015-May-21 07:33N 49°17' W 123°04'0 0.0
2015-May-21 06:34N 49°17' W 123°04'0 0.0
2015-May-21 05:33N 49°17' W 123°04'0 0.0
2015-May-21 04:33N 49°17' W 123°04'0 0.0
2015-May-21 03:33N 49°17' W 123°04'0 0.0
2015-May-21 02:33N 49°17' W 123°04'0 0.0
2015-May-21 01:33N 49°17' W 123°04'0 0.0
2015-May-21 00:33N 49°17' W 123°04'0 0.0
2015-May-20 23:34N 49°17' W 123°04'0 0.0
2015-May-20 22:33N 49°17' W 123°04'2 2.2
2015-May-20 21:33N 49°18' W 123°00'0 0.0
2015-May-20 20:33N 49°18' W 123°00'1 3.6
2015-May-20 20:20N 49°18' W 123°02'1 1.8
2015-May-20 19:33N 49°17' W 123°04'0 0.0
2015-May-20 18:33N 49°17' W 123°04'0 0.0
2015-May-20 17:33N 49°17' W 123°04'0 0.0
2015-May-20 16:33N 49°17' W 123°04'0 0.0
2015-May-20 15:33N 49°17' W 123°04'0 0.0
2015-May-20 14:33N 49°17' W 123°04'0 0.0
2015-May-20 13:33N 49°17' W 123°04'0 0.0
2015-May-20 12:33N 49°17' W 123°04'0 0.0
2015-May-20 11:33N 49°17' W 123°04'0 0.0
2015-May-20 10:33N 49°17' W 123°04'2 2.4
2015-May-20 09:33N 49°18' W 123°07'0 0.0
2015-May-20 08:34N 49°18' W 123°07'2 2.3
2015-May-20 07:33N 49°17' W 123°04'0 0.0
2015-May-20 06:33N 49°17' W 123°04'0 0.0
2015-May-20 05:34N 49°17' W 123°04'0 0.0
2015-May-20 04:33N 49°17' W 123°04'0 0.0
2015-May-20 03:33N 49°17' W 123°04'0 0.0
2015-May-20 02:33N 49°17' W 123°04'0 0.0
2015-May-20 01:33N 49°17' W 123°04'0 0.0
2015-May-20 00:33N 49°17' W 123°04'1 1.3
2015-May-19 23:33N 49°17' W 123°06'2 1.7
2015-May-19 22:33N 49°19' W 123°07'3 2.7
2015-May-19 21:33N 49°17' W 123°04'0 0.0
2015-May-19 20:34N 49°17' W 123°04'0 0.0
2015-May-19 19:34N 49°17' W 123°04'0 0.0
2015-May-19 18:33N 49°17' W 123°04'0 0.0
2015-May-19 17:33N 49°17' W 123°04'0 0.0
2015-May-19 16:33N 49°17' W 123°04'0 0.0
2015-May-19 15:34N 49°17' W 123°04'0 0.0
2015-May-19 14:33N 49°17' W 123°04'0 0.0
2015-May-19 13:34N 49°17' W 123°04'0 0.0
2015-May-19 12:33N 49°17' W 123°04'0 0.0
2015-May-19 11:34N 49°17' W 123°04'0 0.0
2015-May-19 10:33N 49°17' W 123°04'0 0.0
2015-May-19 09:33N 49°17' W 123°04'0 0.0
2015-May-19 08:33N 49°17' W 123°04'0 0.0
2015-May-19 07:33N 49°17' W 123°04'0 0.0
2015-May-19 06:33N 49°17' W 123°04'0 0.0
2015-May-19 05:33N 49°17' W 123°04'0 0.0
2015-May-19 04:33N 49°17' W 123°04'0 0.0
2015-May-19 03:34N 49°17' W 123°04'0 0.0
2015-May-19 02:33N 49°17' W 123°04'0 0.0
2015-May-19 01:34N 49°17' W 123°04'0 0.0
2015-May-19 00:33N 49°17' W 123°04'0 0.0
2015-May-18 23:34N 49°17' W 123°04'0 0.0
2015-May-18 22:33N 49°17' W 123°04'0 0.0
2015-May-18 21:34N 49°17' W 123°04'0 0.0
2015-May-18 20:34N 49°17' W 123°04'0 0.0
2015-May-18 19:34N 49°17' W 123°04'0 0.0
2015-May-18 18:30N 49°17' W 123°04'0 0.0
2015-May-18 17:28N 49°17' W 123°04'0 0.0
2015-May-18 16:28N 49°17' W 123°04'  
Track history (hours):
 
Tides and Currents Weather Stations Pressure Air Temp Water Temp Dewpoint Dewpoint Depression Visibility Wind Speed Wind Dir Waves Ship Positions

Smit Clyde

Last reported at 2015-May-28 15:33 UTC. Time now 2015-May-28 16:12 UTC.
Position N 49°17' W 123°04'.

Length 28 m; draft 6 m.

Type: Towing. MMSI: 316011473.

Date/timePositionNaut miles runAvg speedWind from/ knotsBaromVisibWave heightAir tempDewpointWater temp
2015-May-28 15:33N 49°17' W 123°04'0 0.0
2015-May-28 14:33N 49°17' W 123°04'0 0.0
2015-May-28 13:33N 49°17' W 123°04'0 0.0
2015-May-28 12:33N 49°17' W 123°04'0 0.0
2015-May-28 11:33N 49°17' W 123°04'0 0.0
2015-May-28 10:33N 49°17' W 123°04'0 0.0
2015-May-28 09:33N 49°17' W 123°04'0 0.0
2015-May-28 08:33N 49°17' W 123°04'0 0.0
2015-May-28 07:33N 49°17' W 123°04'0 0.0
2015-May-28 06:33N 49°17' W 123°04'0 0.0
2015-May-28 05:33N 49°17' W 123°04'0 0.0
2015-May-28 04:33N 49°17' W 123°04'0 0.0
2015-May-28 03:33N 49°17' W 123°04'0 0.0
2015-May-28 02:33N 49°17' W 123°04'0 0.0
2015-May-28 01:33N 49°17' W 123°04'0 0.0
2015-May-28 00:33N 49°17' W 123°04'0 0.0
2015-May-27 23:33N 49°17' W 123°04'0 0.0
2015-May-27 22:33N 49°17' W 123°04'0 0.0
2015-May-27 21:33N 49°17' W 123°04'0 0.0
2015-May-27 20:33N 49°17' W 123°04'0 0.0
2015-May-27 19:33N 49°17' W 123°04'0 0.0
2015-May-27 18:33N 49°17' W 123°04'0 0.0
2015-May-27 17:33N 49°17' W 123°04'0 0.0
2015-May-27 16:33N 49°17' W 123°04'0 0.0
2015-May-27 15:33N 49°17' W 123°04'0 0.0
2015-May-27 14:33N 49°17' W 123°04'0 0.0
2015-May-27 13:33N 49°17' W 123°04'0 0.0
2015-May-27 12:33N 49°17' W 123°04'0 0.0
2015-May-27 11:33N 49°17' W 123°04'0 0.0
2015-May-27 10:33N 49°17' W 123°04'0 0.0
2015-May-27 09:33N 49°17' W 123°04'0 0.0
2015-May-27 08:33N 49°17' W 123°04'0 0.0
2015-May-27 07:33N 49°17' W 123°04'0 0.0
2015-May-27 06:33N 49°17' W 123°04'0 0.0
2015-May-27 05:33N 49°17' W 123°04'0 0.0
2015-May-27 04:33N 49°17' W 123°04'0 0.0
2015-May-27 03:33N 49°17' W 123°04'0 0.0
2015-May-27 02:33N 49°17' W 123°04'1 1.1
2015-May-27 01:33N 49°18' W 123°02'1 0.7
2015-May-27 00:33N 49°18' W 123°03'1 0.6
2015-May-26 23:34N 49°18' W 123°04'0 0.1
2015-May-26 22:33N 49°17' W 123°04'0 0.0
2015-May-26 21:33N 49°17' W 123°04'0 0.0
2015-May-26 20:33N 49°17' W 123°04'0 0.0
2015-May-26 19:33N 49°17' W 123°04'0 0.0
2015-May-26 18:33N 49°17' W 123°04'0 0.0
2015-May-26 17:33N 49°17' W 123°04'0 0.0
2015-May-26 16:33N 49°17' W 123°04'0 0.0
2015-May-26 15:33N 49°17' W 123°04'6 6.4
2015-May-26 14:33N 49°17' W 122°54'0 0.3
2015-May-26 13:33N 49°17' W 122°54'6 6.1
2015-May-26 12:33N 49°17' W 123°04'0 0.0
2015-May-26 11:33N 49°17' W 123°04'0 0.0
2015-May-26 10:33N 49°17' W 123°04'0 0.0
2015-May-26 09:33N 49°17' W 123°04'0 0.0
2015-May-26 08:33N 49°17' W 123°04'0 0.0
2015-May-26 07:33N 49°17' W 123°04'0 0.0
2015-May-26 06:33N 49°17' W 123°04'0 0.0
2015-May-26 05:33N 49°17' W 123°04'0 0.0
2015-May-26 04:33N 49°17' W 123°04'0 0.0
2015-May-26 03:33N 49°17' W 123°04'0 0.0
2015-May-26 02:33N 49°17' W 123°04'0 0.0
2015-May-26 01:33N 49°17' W 123°04'0 0.0
2015-May-26 00:33N 49°17' W 123°04'2 2.2
2015-May-25 23:33N 49°18' W 123°07'1 1.0
2015-May-25 22:33N 49°18' W 123°06'1 1.3
2015-May-25 21:33N 49°17' W 123°04'0 0.0
2015-May-25 20:33N 49°17' W 123°04'0 0.0
2015-May-25 19:33N 49°17' W 123°04'0 0.0
2015-May-25 18:33N 49°17' W 123°04'0 0.0
2015-May-25 17:33N 49°17' W 123°04'0 0.0
2015-May-25 16:33N 49°17' W 123°04'0 0.0
2015-May-25 15:33N 49°17' W 123°04'0 0.0
2015-May-25 14:33N 49°17' W 123°04'0 0.0
2015-May-25 13:33N 49°17' W 123°04'1 0.9
2015-May-25 12:33N 49°17' W 123°05'1 0.9
2015-May-25 11:33N 49°17' W 123°04'0 0.0
2015-May-25 10:33N 49°17' W 123°04'0 0.0
2015-May-25 09:33N 49°17' W 123°04'0 0.0
2015-May-25 08:33N 49°17' W 123°04'0 0.0
2015-May-25 07:33N 49°17' W 123°04'0 0.0
2015-May-25 06:33N 49°17' W 123°04'0 0.0
2015-May-25 05:33N 49°17' W 123°04'0 0.0
2015-May-25 04:33N 49°17' W 123°04'0 0.0
2015-May-25 03:33N 49°17' W 123°04'0 0.0
2015-May-25 02:33N 49°17' W 123°04'0 0.0
2015-May-25 01:33N 49°17' W 123°04'0 0.0
2015-May-25 00:33N 49°17' W 123°04'0 0.0
2015-May-24 23:33N 49°17' W 123°04'0 0.0
2015-May-24 22:33N 49°17' W 123°04'0 0.0
2015-May-24 21:33N 49°17' W 123°04'0 0.0
2015-May-24 20:33N 49°17' W 123°04'2 2.4
2015-May-24 19:33N 49°19' W 123°07'2 2.4
2015-May-24 18:33N 49°17' W 123°04'0 0.0
2015-May-24 17:33N 49°17' W 123°04'0 0.0
2015-May-24 16:33N 49°17' W 123°04'0 0.0
2015-May-24 06:10N 49°17' W 123°04'0 0.0
2015-May-24 05:32N 49°17' W 123°04'0 0.0
2015-May-24 04:29N 49°17' W 123°04'0 0.0
2015-May-24 03:33N 49°17' W 123°04'0 0.0
2015-May-24 02:33N 49°17' W 123°04'0 0.0
2015-May-24 01:33N 49°17' W 123°04'0 0.0
2015-May-24 00:33N 49°17' W 123°04'0 0.0
2015-May-23 23:33N 49°17' W 123°04'0 0.0
2015-May-23 22:33N 49°17' W 123°04'1 0.7
2015-May-23 21:33N 49°18' W 123°04'1 0.7
2015-May-23 20:33N 49°17' W 123°04'2 2.4
2015-May-23 19:33N 49°18' W 123°07'0 0.0
2015-May-23 18:33N 49°18' W 123°07'2 2.4
2015-May-23 17:33N 49°17' W 123°04'1 0.6
2015-May-23 16:33N 49°18' W 123°03'1 0.6
2015-May-23 15:33N 49°17' W 123°04'0 0.0
2015-May-23 14:33N 49°17' W 123°04'1 1.4
2015-May-23 13:33N 49°17' W 123°06'1 1.3
2015-May-23 12:33N 49°18' W 123°04'0 0.1
2015-May-23 11:33N 49°17' W 123°04'0 0.0
2015-May-23 10:33N 49°17' W 123°04'0 0.0
2015-May-23 09:33N 49°17' W 123°04'0 0.0
2015-May-23 08:33N 49°17' W 123°04'0 0.0
2015-May-23 07:33N 49°17' W 123°04'0 0.0
2015-May-23 06:33N 49°17' W 123°04'0 0.0
2015-May-23 05:33N 49°17' W 123°04'0 0.0
2015-May-23 04:33N 49°17' W 123°04'0 0.0
2015-May-23 03:33N 49°17' W 123°04'0 0.0
2015-May-23 02:33N 49°17' W 123°04'0 0.0
2015-May-23 01:33N 49°17' W 123°04'0 0.0
2015-May-23 00:33N 49°17' W 123°04'2 1.8
2015-May-22 23:33N 49°18' W 123°06'1 0.6
2015-May-22 22:33N 49°19' W 123°07'2 1.6
2015-May-22 21:33N 49°17' W 123°05'0 0.3
2015-May-22 20:33N 49°17' W 123°06'1 0.9
2015-May-22 19:33N 49°18' W 123°04'1 0.6
2015-May-22 18:34N 49°17' W 123°04'0 0.0
2015-May-22 17:33N 49°17' W 123°04'0 0.0
2015-May-22 16:33N 49°17' W 123°04'0 0.0
2015-May-22 15:33N 49°17' W 123°04'1 0.6
2015-May-22 14:33N 49°18' W 123°03'1 0.6
2015-May-22 13:33N 49°17' W 123°04'0 0.0
2015-May-22 12:33N 49°17' W 123°04'0 0.0
2015-May-22 11:33N 49°17' W 123°04'0 0.0
2015-May-22 10:33N 49°17' W 123°04'0 0.0
2015-May-22 09:33N 49°17' W 123°04'1 0.6
2015-May-22 08:33N 49°17' W 123°05'0 0.3
2015-May-22 07:33N 49°18' W 123°05'0 0.3
2015-May-22 06:33N 49°17' W 123°05'0 0.2
2015-May-22 05:33N 49°17' W 123°05'1 0.8
2015-May-22 04:33N 49°17' W 123°04'0 0.0
2015-May-22 03:33N 49°17' W 123°04'0 0.0
2015-May-22 02:33N 49°17' W 123°04'0 0.0
2015-May-22 01:33N 49°17' W 123°04'0 0.0
2015-May-22 00:33N 49°17' W 123°04'1 1.0
2015-May-21 23:33N 49°18' W 123°02'2 1.6
2015-May-21 22:33N 49°18' W 123°05'1 0.7
2015-May-21 21:34N 49°17' W 123°04'0 0.0
2015-May-21 20:33N 49°17' W 123°04'0 0.0
2015-May-21 19:34N 49°17' W 123°04'0 0.0
2015-May-21 18:33N 49°17' W 123°04'0 0.0
2015-May-21 17:34N 49°17' W 123°04'0 0.0
2015-May-21 16:33N 49°17' W 123°04'0 0.0
2015-May-21 15:33N 49°17' W 123°04'2 2.4
2015-May-21 14:33N 49°18' W 123°07'2 2.4
2015-May-21 13:34N 49°19' W 123°10'2 2.3
2015-May-21 12:33N 49°19' W 123°07'2 2.4
2015-May-21 11:33N 49°17' W 123°04'0 0.0
2015-May-21 10:33N 49°17' W 123°04'0 0.0
2015-May-21 09:33N 49°17' W 123°04'0 0.0
2015-May-21 08:33N 49°17' W 123°04'0 0.0
2015-May-21 07:59N 49°17' W 123°04'0 0.0
2015-May-21 07:33N 49°17' W 123°04'0 0.0
2015-May-21 06:34N 49°17' W 123°04'0 0.0
2015-May-21 05:33N 49°17' W 123°04'0 0.0
2015-May-21 04:33N 49°17' W 123°04'0 0.0
2015-May-21 03:33N 49°17' W 123°04'0 0.0
2015-May-21 02:33N 49°17' W 123°04'0 0.0
2015-May-21 01:33N 49°17' W 123°04'0 0.0
2015-May-21 00:33N 49°17' W 123°04'0 0.0
2015-May-20 23:34N 49°17' W 123°04'0 0.0
2015-May-20 22:33N 49°17' W 123°04'2 2.2
2015-May-20 21:33N 49°18' W 123°00'0 0.0
2015-May-20 20:33N 49°18' W 123°00'1 3.6
2015-May-20 20:20N 49°18' W 123°02'1 1.8
2015-May-20 19:33N 49°17' W 123°04'0 0.0
2015-May-20 18:33N 49°17' W 123°04'0 0.0
2015-May-20 17:33N 49°17' W 123°04'0 0.0
2015-May-20 16:33N 49°17' W 123°04'0 0.0
2015-May-20 15:33N 49°17' W 123°04'0 0.0
2015-May-20 14:33N 49°17' W 123°04'0 0.0
2015-May-20 13:33N 49°17' W 123°04'0 0.0
2015-May-20 12:33N 49°17' W 123°04'0 0.0
2015-May-20 11:33N 49°17' W 123°04'0 0.0
2015-May-20 10:33N 49°17' W 123°04'2 2.4
2015-May-20 09:33N 49°18' W 123°07'0 0.0
2015-May-20 08:34N 49°18' W 123°07'2 2.3
2015-May-20 07:33N 49°17' W 123°04'0 0.0
2015-May-20 06:33N 49°17' W 123°04'0 0.0
2015-May-20 05:34N 49°17' W 123°04'0 0.0
2015-May-20 04:33N 49°17' W 123°04'0 0.0
2015-May-20 03:33N 49°17' W 123°04'0 0.0
2015-May-20 02:33N 49°17' W 123°04'0 0.0
2015-May-20 01:33N 49°17' W 123°04'0 0.0
2015-May-20 00:33N 49°17' W 123°04'1 1.3
2015-May-19 23:33N 49°17' W 123°06'2 1.7
2015-May-19 22:33N 49°19' W 123°07'3 2.7
2015-May-19 21:33N 49°17' W 123°04'0 0.0
2015-May-19 20:34N 49°17' W 123°04'0 0.0
2015-May-19 19:34N 49°17' W 123°04'0 0.0
2015-May-19 18:33N 49°17' W 123°04'0 0.0
2015-May-19 17:33N 49°17' W 123°04'0 0.0
2015-May-19 16:33N 49°17' W 123°04'0 0.0
2015-May-19 15:34N 49°17' W 123°04'0 0.0
2015-May-19 14:33N 49°17' W 123°04'0 0.0
2015-May-19 13:34N 49°17' W 123°04'0 0.0
2015-May-19 12:33N 49°17' W 123°04'0 0.0
2015-May-19 11:34N 49°17' W 123°04'0 0.0
2015-May-19 10:33N 49°17' W 123°04'0 0.0
2015-May-19 09:33N 49°17' W 123°04'0 0.0
2015-May-19 08:33N 49°17' W 123°04'0 0.0
2015-May-19 07:33N 49°17' W 123°04'0 0.0
2015-May-19 06:33N 49°17' W 123°04'0 0.0
2015-May-19 05:33N 49°17' W 123°04'0 0.0
2015-May-19 04:33N 49°17' W 123°04'0 0.0
2015-May-19 03:34N 49°17' W 123°04'0 0.0
2015-May-19 02:33N 49°17' W 123°04'0 0.0
2015-May-19 01:34N 49°17' W 123°04'0 0.0
2015-May-19 00:33N 49°17' W 123°04'0 0.0
2015-May-18 23:34N 49°17' W 123°04'0 0.0
2015-May-18 22:33N 49°17' W 123°04'0 0.0
2015-May-18 21:34N 49°17' W 123°04'0 0.0
2015-May-18 20:34N 49°17' W 123°04'0 0.0
2015-May-18 19:34N 49°17' W 123°04'0 0.0
2015-May-18 18:30N 49°17' W 123°04'0 0.0
2015-May-18 17:28N 49°17' W 123°04'0 0.0
2015-May-18 16:28N 49°17' W 123°04'  

Dump ship's entire track history